sensor_id;sensor_type;location;lat;lon;timestamp;temperature;humidity
12049;DHT22;6085;49.452;8.502;2023-06-26T00:03:22;20.10;99.90
12049;DHT22;6085;49.452;8.502;2023-06-26T00:07:25;20.10;99.90
12049;DHT22;6085;49.452;8.502;2023-06-26T00:11:27;20.10;99.90
12049;DHT22;6085;49.452;8.502;2023-06-26T00:15:33;20.20;99.90
12049;DHT22;6085;49.452;8.502;2023-06-26T00:19:37;20.30;99.90
12049;DHT22;6085;49.452;8.502;2023-06-26T00:23:39;20.40;99.90
12049;DHT22;6085;49.452;8.502;2023-06-26T00:27:40;20.50;99.90
12049;DHT22;6085;49.452;8.502;2023-06-26T00:31:42;20.50;99.90
12049;DHT22;6085;49.452;8.502;2023-06-26T00:35:46;20.60;99.90
12049;DHT22;6085;49.452;8.502;2023-06-26T00:39:48;20.50;99.90
12049;DHT22;6085;49.452;8.502;2023-06-26T00:43:50;20.50;99.90
12049;DHT22;6085;49.452;8.502;2023-06-26T00:47:52;20.40;99.90
12049;DHT22;6085;49.452;8.502;2023-06-26T00:51:56;20.40;99.90
12049;DHT22;6085;49.452;8.502;2023-06-26T00:55:59;20.30;99.90
12049;DHT22;6085;49.452;8.502;2023-06-26T01:00:04;20.20;99.90
12049;DHT22;6085;49.452;8.502;2023-06-26T01:04:07;20.10;99.90
12049;DHT22;6085;49.452;8.502;2023-06-26T01:08:11;19.90;99.90
12049;DHT22;6085;49.452;8.502;2023-06-26T01:12:13;19.80;99.90
12049;DHT22;6085;49.452;8.502;2023-06-26T01:16:15;19.70;99.90
12049;DHT22;6085;49.452;8.502;2023-06-26T01:20:20;19.50;99.90
12049;DHT22;6085;49.452;8.502;2023-06-26T01:24:25;19.40;99.90
12049;DHT22;6085;49.452;8.502;2023-06-26T01:28:29;19.20;99.90
12049;DHT22;6085;49.452;8.502;2023-06-26T01:32:31;19.20;99.90
12049;DHT22;6085;49.452;8.502;2023-06-26T01:36:34;19.20;99.90
12049;DHT22;6085;49.452;8.502;2023-06-26T01:40:38;19.00;99.90
12049;DHT22;6085;49.452;8.502;2023-06-26T01:44:45;19.00;99.90
12049;DHT22;6085;49.452;8.502;2023-06-26T01:48:55;18.90;99.90
12049;DHT22;6085;49.452;8.502;2023-06-26T01:53:02;18.80;99.90
12049;DHT22;6085;49.452;8.502;2023-06-26T01:57:07;18.80;99.90
12049;DHT22;6085;49.452;8.502;2023-06-26T02:01:11;18.70;99.90
12049;DHT22;6085;49.452;8.502;2023-06-26T02:05:14;18.60;99.90
12049;DHT22;6085;49.452;8.502;2023-06-26T02:09:16;18.60;99.90
12049;DHT22;6085;49.452;8.502;2023-06-26T02:13:18;18.50;99.90
12049;DHT22;6085;49.452;8.502;2023-06-26T02:17:22;18.60;99.90
12049;DHT22;6085;49.452;8.502;2023-06-26T02:21:23;19.00;99.90
12049;DHT22;6085;49.452;8.502;2023-06-26T02:25:25;19.30;99.90
12049;DHT22;6085;49.452;8.502;2023-06-26T02:29:27;19.50;99.90
12049;DHT22;6085;49.452;8.502;2023-06-26T02:33:31;19.50;99.90
12049;DHT22;6085;49.452;8.502;2023-06-26T02:37:34;19.40;99.90
12049;DHT22;6085;49.452;8.502;2023-06-26T02:41:36;19.30;99.90
12049;DHT22;6085;49.452;8.502;2023-06-26T02:45:38;19.10;99.90
12049;DHT22;6085;49.452;8.502;2023-06-26T02:49:41;19.00;99.90
12049;DHT22;6085;49.452;8.502;2023-06-26T02:53:43;18.80;99.90
12049;DHT22;6085;49.452;8.502;2023-06-26T02:57:45;18.70;99.90
12049;DHT22;6085;49.452;8.502;2023-06-26T03:01:47;18.70;99.90
12049;DHT22;6085;49.452;8.502;2023-06-26T03:05:51;18.80;99.90
12049;DHT22;6085;49.452;8.502;2023-06-26T03:09:53;19.00;99.90
12049;DHT22;6085;49.452;8.502;2023-06-26T03:13:55;19.10;99.90
12049;DHT22;6085;49.452;8.502;2023-06-26T03:17:57;19.20;99.90
12049;DHT22;6085;49.452;8.502;2023-06-26T03:22:00;19.20;99.90
12049;DHT22;6085;49.452;8.502;2023-06-26T03:26:04;19.20;99.90
12049;DHT22;6085;49.452;8.502;2023-06-26T03:30:07;19.20;99.90
12049;DHT22;6085;49.452;8.502;2023-06-26T03:34:09;19.20;99.90
12049;DHT22;6085;49.452;8.502;2023-06-26T03:38:12;19.10;99.90
12049;DHT22;6085;49.452;8.502;2023-06-26T03:42:15;19.00;99.90
12049;DHT22;6085;49.452;8.502;2023-06-26T03:46:17;18.90;99.90
12049;DHT22;6085;49.452;8.502;2023-06-26T03:50:19;18.90;99.90
12049;DHT22;6085;49.452;8.502;2023-06-26T03:54:22;18.90;99.90
12049;DHT22;6085;49.452;8.502;2023-06-26T03:58:25;19.00;99.90
12049;DHT22;6085;49.452;8.502;2023-06-26T04:02:27;19.00;99.90
12049;DHT22;6085;49.452;8.502;2023-06-26T04:06:29;19.20;99.90
12049;DHT22;6085;49.452;8.502;2023-06-26T04:10:33;19.20;99.90
12049;DHT22;6085;49.452;8.502;2023-06-26T04:14:36;19.30;99.90
12049;DHT22;6085;49.452;8.502;2023-06-26T04:18:38;19.40;99.90
12049;DHT22;6085;49.452;8.502;2023-06-26T04:22:40;19.50;99.90
12049;DHT22;6085;49.452;8.502;2023-06-26T04:26:43;19.70;99.90
12049;DHT22;6085;49.452;8.502;2023-06-26T04:30:47;19.80;99.90
12049;DHT22;6085;49.452;8.502;2023-06-26T04:34:51;20.00;99.90
12049;DHT22;6085;49.452;8.502;2023-06-26T04:38:54;20.50;99.90
12049;DHT22;6085;49.452;8.502;2023-06-26T04:42:57;20.90;99.90
12049;DHT22;6085;49.452;8.502;2023-06-26T04:46:59;21.00;99.90
12049;DHT22;6085;49.452;8.502;2023-06-26T04:51:01;21.00;99.90
12049;DHT22;6085;49.452;8.502;2023-06-26T04:55:03;21.30;99.90
12049;DHT22;6085;49.452;8.502;2023-06-26T04:59:07;21.50;99.90
12049;DHT22;6085;49.452;8.502;2023-06-26T05:03:15;21.70;99.90
12049;DHT22;6085;49.452;8.502;2023-06-26T05:07:21;21.60;99.90
12049;DHT22;6085;49.452;8.502;2023-06-26T05:11:24;21.60;99.90
12049;DHT22;6085;49.452;8.502;2023-06-26T05:15:27;21.60;99.90
12049;DHT22;6085;49.452;8.502;2023-06-26T05:19:29;21.70;99.90
12049;DHT22;6085;49.452;8.502;2023-06-26T05:23:32;21.80;99.90
12049;DHT22;6085;49.452;8.502;2023-06-26T05:27:35;22.00;99.90
12049;DHT22;6085;49.452;8.502;2023-06-26T05:31:41;22.40;99.90
12049;DHT22;6085;49.452;8.502;2023-06-26T05:35:45;23.00;99.90
12049;DHT22;6085;49.452;8.502;2023-06-26T05:39:48;23.20;99.90
12049;DHT22;6085;49.452;8.502;2023-06-26T05:43:50;23.80;99.90
12049;DHT22;6085;49.452;8.502;2023-06-26T05:47:56;24.40;99.90
12049;DHT22;6085;49.452;8.502;2023-06-26T05:51:59;24.80;99.90
12049;DHT22;6085;49.452;8.502;2023-06-26T05:56:08;25.30;99.90
12049;DHT22;6085;49.452;8.502;2023-06-26T06:00:11;26.00;99.90
12049;DHT22;6085;49.452;8.502;2023-06-26T06:04:15;26.70;99.90
12049;DHT22;6085;49.452;8.502;2023-06-26T06:08:17;27.50;99.90
12049;DHT22;6085;49.452;8.502;2023-06-26T06:12:19;28.30;99.90
12049;DHT22;6085;49.452;8.502;2023-06-26T06:16:24;29.40;99.90
12049;DHT22;6085;49.452;8.502;2023-06-26T06:20:27;29.50;99.90
12049;DHT22;6085;49.452;8.502;2023-06-26T06:24:29;30.30;99.20
12049;DHT22;6085;49.452;8.502;2023-06-26T06:28:31;30.50;98.70
12049;DHT22;6085;49.452;8.502;2023-06-26T06:32:33;30.60;98.20
12049;DHT22;6085;49.452;8.502;2023-06-26T06:36:37;30.90;97.60
12049;DHT22;6085;49.452;8.502;2023-06-26T06:40:39;31.30;95.90
12049;DHT22;6085;49.452;8.502;2023-06-26T06:44:41;31.70;94.50
12049;DHT22;6085;49.452;8.502;2023-06-26T06:48:44;31.30;94.40
12049;DHT22;6085;49.452;8.502;2023-06-26T06:52:48;31.60;93.80
12049;DHT22;6085;49.452;8.502;2023-06-26T06:56:50;32.10;92.50
12049;DHT22;6085;49.452;8.502;2023-06-26T07:00:53;32.40;92.20
12049;DHT22;6085;49.452;8.502;2023-06-26T07:04:54;33.00;90.80
12049;DHT22;6085;49.452;8.502;2023-06-26T07:08:58;34.00;88.10
12049;DHT22;6085;49.452;8.502;2023-06-26T07:13:00;34.60;86.00
12049;DHT22;6085;49.452;8.502;2023-06-26T07:17:02;34.80;82.30
12049;DHT22;6085;49.452;8.502;2023-06-26T07:21:04;35.40;80.10
12049;DHT22;6085;49.452;8.502;2023-06-26T07:25:08;35.30;77.80
12049;DHT22;6085;49.452;8.502;2023-06-26T07:29:10;36.00;74.90
12049;DHT22;6085;49.452;8.502;2023-06-26T07:33:12;36.70;72.30
12049;DHT22;6085;49.452;8.502;2023-06-26T07:37:14;36.60;70.10
12049;DHT22;6085;49.452;8.502;2023-06-26T07:41:18;36.90;69.30
12049;DHT22;6085;49.452;8.502;2023-06-26T07:45:20;37.30;67.50
12049;DHT22;6085;49.452;8.502;2023-06-26T07:49:22;37.50;66.20
12049;DHT22;6085;49.452;8.502;2023-06-26T07:53:24;37.50;65.10
12049;DHT22;6085;49.452;8.502;2023-06-26T07:57:27;37.80;64.10
12049;DHT22;6085;49.452;8.502;2023-06-26T08:01:29;37.80;63.00
12049;DHT22;6085;49.452;8.502;2023-06-26T08:05:31;37.90;62.90
12049;DHT22;6085;49.452;8.502;2023-06-26T08:09:35;38.00;61.90
12049;DHT22;6085;49.452;8.502;2023-06-26T08:13:39;38.00;61.00
12049;DHT22;6085;49.452;8.502;2023-06-26T08:17:41;39.00;59.60
12049;DHT22;6085;49.452;8.502;2023-06-26T08:21:43;38.30;59.90
12049;DHT22;6085;49.452;8.502;2023-06-26T08:25:46;38.90;58.80
12049;DHT22;6085;49.452;8.502;2023-06-26T08:29:50;38.50;58.50
12049;DHT22;6085;49.452;8.502;2023-06-26T08:33:52;38.70;58.20
12049;DHT22;6085;49.452;8.502;2023-06-26T08:37:54;38.30;58.70
12049;DHT22;6085;49.452;8.502;2023-06-26T08:41:57;38.40;57.10
12049;DHT22;6085;49.452;8.502;2023-06-26T08:46:00;39.70;56.00
12049;DHT22;6085;49.452;8.502;2023-06-26T08:50:07;39.40;55.70
12049;DHT22;6085;49.452;8.502;2023-06-26T08:54:12;37.40;57.00
12049;DHT22;6085;49.452;8.502;2023-06-26T08:58:15;35.80;57.80
12049;DHT22;6085;49.452;8.502;2023-06-26T09:02:19;35.30;57.70
12049;DHT22;6085;49.452;8.502;2023-06-26T09:06:22;35.30;57.90
12049;DHT22;6085;49.452;8.502;2023-06-26T09:10:24;34.70;59.00
12049;DHT22;6085;49.452;8.502;2023-06-26T09:14:27;35.20;58.50
12049;DHT22;6085;49.452;8.502;2023-06-26T09:18:32;35.90;58.10
12049;DHT22;6085;49.452;8.502;2023-06-26T09:22:36;37.10;55.90
12049;DHT22;6085;49.452;8.502;2023-06-26T09:26:40;38.20;53.60
12049;DHT22;6085;49.452;8.502;2023-06-26T09:30:42;38.60;52.90
12049;DHT22;6085;49.452;8.502;2023-06-26T09:34:47;39.20;52.20
12049;DHT22;6085;49.452;8.502;2023-06-26T09:38:50;40.00;51.00
12049;DHT22;6085;49.452;8.502;2023-06-26T09:42:52;40.30;49.50
12049;DHT22;6085;49.452;8.502;2023-06-26T09:46:55;39.00;51.00
12049;DHT22;6085;49.452;8.502;2023-06-26T09:51:00;36.70;54.30
12049;DHT22;6085;49.452;8.502;2023-06-26T09:55:09;35.70;55.10
12049;DHT22;6085;49.452;8.502;2023-06-26T09:59:11;35.30;56.80
12049;DHT22;6085;49.452;8.502;2023-06-26T10:03:13;35.60;55.80
12049;DHT22;6085;49.452;8.502;2023-06-26T10:07:17;35.80;56.30
12049;DHT22;6085;49.452;8.502;2023-06-26T10:11:22;34.90;57.70
12049;DHT22;6085;49.452;8.502;2023-06-26T10:15:25;36.30;55.80
12049;DHT22;6085;49.452;8.502;2023-06-26T10:19:28;36.30;55.80
12049;DHT22;6085;49.452;8.502;2023-06-26T10:23:33;35.40;56.60
12049;DHT22;6085;49.452;8.502;2023-06-26T10:27:38;34.10;58.70
12049;DHT22;6085;49.452;8.502;2023-06-26T10:31:44;33.80;60.10
12049;DHT22;6085;49.452;8.502;2023-06-26T10:35:47;32.70;61.90
12049;DHT22;6085;49.452;8.502;2023-06-26T10:39:52;32.50;63.10
12049;DHT22;6085;49.452;8.502;2023-06-26T10:44:07;34.90;57.90
12049;DHT22;6085;49.452;8.502;2023-06-26T10:48:09;36.10;57.20
12049;DHT22;6085;49.452;8.502;2023-06-26T10:52:11;37.20;55.60
12049;DHT22;6085;49.452;8.502;2023-06-26T10:56:15;36.20;55.80
12049;DHT22;6085;49.452;8.502;2023-06-26T11:00:17;33.70;59.30
12049;DHT22;6085;49.452;8.502;2023-06-26T11:04:36;33.60;60.20
12049;DHT22;6085;49.452;8.502;2023-06-26T11:08:45;32.70;62.30
12049;DHT22;6085;49.452;8.502;2023-06-26T11:12:50;32.00;64.00
12049;DHT22;6085;49.452;8.502;2023-06-26T11:16:52;32.10;64.40
12049;DHT22;6085;49.452;8.502;2023-06-26T11:21:04;34.00;60.70
12049;DHT22;6085;49.452;8.502;2023-06-26T11:25:08;35.70;58.60
12049;DHT22;6085;49.452;8.502;2023-06-26T11:29:12;35.00;58.70
12049;DHT22;6085;49.452;8.502;2023-06-26T11:33:14;34.60;58.00
12049;DHT22;6085;49.452;8.502;2023-06-26T11:37:17;33.70;59.70
12049;DHT22;6085;49.452;8.502;2023-06-26T11:41:19;34.10;59.00
12049;DHT22;6085;49.452;8.502;2023-06-26T11:45:23;35.40;58.20
12049;DHT22;6085;49.452;8.502;2023-06-26T11:49:25;35.50;57.20
12049;DHT22;6085;49.452;8.502;2023-06-26T11:53:27;34.40;57.10
12049;DHT22;6085;49.452;8.502;2023-06-26T11:57:30;33.70;57.60
12049;DHT22;6085;49.452;8.502;2023-06-26T12:01:35;33.10;59.60
12049;DHT22;6085;49.452;8.502;2023-06-26T12:05:37;33.20;60.20
12049;DHT22;6085;49.452;8.502;2023-06-26T12:09:40;33.30;59.10
12049;DHT22;6085;49.452;8.502;2023-06-26T12:13:42;32.70;59.20
12049;DHT22;6085;49.452;8.502;2023-06-26T12:17:54;32.80;58.00
12049;DHT22;6085;49.452;8.502;2023-06-26T12:21:56;32.30;57.50
12049;DHT22;6085;49.452;8.502;2023-06-26T12:25:58;31.60;58.20
12049;DHT22;6085;49.452;8.502;2023-06-26T12:30:04;31.50;58.70
12049;DHT22;6085;49.452;8.502;2023-06-26T12:34:11;31.70;58.70
12049;DHT22;6085;49.452;8.502;2023-06-26T12:38:15;31.60;58.50
12049;DHT22;6085;49.452;8.502;2023-06-26T12:42:19;31.40;58.50
12049;DHT22;6085;49.452;8.502;2023-06-26T12:46:33;31.70;57.50
12049;DHT22;6085;49.452;8.502;2023-06-26T12:50:43;32.10;57.20
12049;DHT22;6085;49.452;8.502;2023-06-26T12:54:47;32.20;55.70
12049;DHT22;6085;49.452;8.502;2023-06-26T12:58:53;32.20;56.50
12049;DHT22;6085;49.452;8.502;2023-06-26T13:02:55;32.20;53.90
12049;DHT22;6085;49.452;8.502;2023-06-26T13:06:59;31.90;55.00
12049;DHT22;6085;49.452;8.502;2023-06-26T13:11:01;31.90;54.90
12049;DHT22;6085;49.452;8.502;2023-06-26T13:15:04;31.70;55.20
12049;DHT22;6085;49.452;8.502;2023-06-26T13:19:07;31.40;56.50
12049;DHT22;6085;49.452;8.502;2023-06-26T13:23:11;31.30;56.70
12049;DHT22;6085;49.452;8.502;2023-06-26T13:27:13;31.40;57.10
12049;DHT22;6085;49.452;8.502;2023-06-26T13:31:16;31.70;56.80
12049;DHT22;6085;49.452;8.502;2023-06-26T13:35:18;31.60;55.20
12049;DHT22;6085;49.452;8.502;2023-06-26T13:39:21;31.20;55.70
12049;DHT22;6085;49.452;8.502;2023-06-26T13:43:23;31.10;55.50
12049;DHT22;6085;49.452;8.502;2023-06-26T13:47:25;31.10;55.40
12049;DHT22;6085;49.452;8.502;2023-06-26T13:51:27;31.20;54.70
12049;DHT22;6085;49.452;8.502;2023-06-26T13:55:31;31.20;54.20
12049;DHT22;6085;49.452;8.502;2023-06-26T13:59:33;31.30;53.40
12049;DHT22;6085;49.452;8.502;2023-06-26T14:03:35;31.00;54.00
12049;DHT22;6085;49.452;8.502;2023-06-26T14:07:37;30.60;54.10
12049;DHT22;6085;49.452;8.502;2023-06-26T14:11:40;30.30;54.90
12049;DHT22;6085;49.452;8.502;2023-06-26T14:15:42;30.20;55.00
12049;DHT22;6085;49.452;8.502;2023-06-26T14:19:44;30.10;53.90
12049;DHT22;6085;49.452;8.502;2023-06-26T14:23:47;30.00;53.80
12049;DHT22;6085;49.452;8.502;2023-06-26T14:27:50;29.90;53.20
12049;DHT22;6085;49.452;8.502;2023-06-26T14:31:52;30.10;49.10
12049;DHT22;6085;49.452;8.502;2023-06-26T14:35:54;30.10;47.80
12049;DHT22;6085;49.452;8.502;2023-06-26T14:39:56;30.10;47.00
12049;DHT22;6085;49.452;8.502;2023-06-26T14:44:00;30.00;48.20
12049;DHT22;6085;49.452;8.502;2023-06-26T14:48:02;30.10;48.90
12049;DHT22;6085;49.452;8.502;2023-06-26T14:52:05;30.20;47.70
12049;DHT22;6085;49.452;8.502;2023-06-26T14:56:07;29.90;47.70
12049;DHT22;6085;49.452;8.502;2023-06-26T15:00:11;29.80;48.10
12049;DHT22;6085;49.452;8.502;2023-06-26T15:04:13;29.90;47.80
12049;DHT22;6085;49.452;8.502;2023-06-26T15:08:15;29.90;47.60
12049;DHT22;6085;49.452;8.502;2023-06-26T15:12:17;29.90;46.00
12049;DHT22;6085;49.452;8.502;2023-06-26T15:16:21;29.80;46.50
12049;DHT22;6085;49.452;8.502;2023-06-26T15:20:23;29.50;47.60
12049;DHT22;6085;49.452;8.502;2023-06-26T15:24:25;29.10;48.60
12049;DHT22;6085;49.452;8.502;2023-06-26T15:28:27;29.10;48.70
12049;DHT22;6085;49.452;8.502;2023-06-26T15:32:31;29.30;48.80
12049;DHT22;6085;49.452;8.502;2023-06-26T15:36:32;29.40;48.90
12049;DHT22;6085;49.452;8.502;2023-06-26T15:40:35;29.40;48.70
12049;DHT22;6085;49.452;8.502;2023-06-26T15:44:37;29.50;48.30
12049;DHT22;6085;49.452;8.502;2023-06-26T15:48:40;29.50;48.30
12049;DHT22;6085;49.452;8.502;2023-06-26T15:52:42;29.50;47.40
12049;DHT22;6085;49.452;8.502;2023-06-26T15:56:44;29.30;47.00
12049;DHT22;6085;49.452;8.502;2023-06-26T16:00:47;29.10;49.70
12049;DHT22;6085;49.452;8.502;2023-06-26T16:04:50;28.80;49.80
12049;DHT22;6085;49.452;8.502;2023-06-26T16:08:52;28.70;51.20
12049;DHT22;6085;49.452;8.502;2023-06-26T16:12:54;28.60;50.90
12049;DHT22;6085;49.452;8.502;2023-06-26T16:16:56;28.50;51.30
12049;DHT22;6085;49.452;8.502;2023-06-26T16:20:59;28.40;50.60
12049;DHT22;6085;49.452;8.502;2023-06-26T16:25:01;28.20;51.40
12049;DHT22;6085;49.452;8.502;2023-06-26T16:29:03;28.10;51.80
12049;DHT22;6085;49.452;8.502;2023-06-26T16:33:06;28.00;52.60
12049;DHT22;6085;49.452;8.502;2023-06-26T16:37:09;28.00;52.00
12049;DHT22;6085;49.452;8.502;2023-06-26T16:41:11;28.00;52.40
12049;DHT22;6085;49.452;8.502;2023-06-26T16:45:13;28.00;52.20
12049;DHT22;6085;49.452;8.502;2023-06-26T16:49:15;28.00;52.40
12049;DHT22;6085;49.452;8.502;2023-06-26T16:53:19;27.90;52.50
12049;DHT22;6085;49.452;8.502;2023-06-26T16:57:21;27.80;52.60
12049;DHT22;6085;49.452;8.502;2023-06-26T17:01:23;27.60;52.80
12049;DHT22;6085;49.452;8.502;2023-06-26T17:05:25;27.60;52.70
12049;DHT22;6085;49.452;8.502;2023-06-26T17:09:29;27.60;53.50
12049;DHT22;6085;49.452;8.502;2023-06-26T17:13:31;27.40;51.80
12049;DHT22;6085;49.452;8.502;2023-06-26T17:17:33;27.20;51.10
12049;DHT22;6085;49.452;8.502;2023-06-26T17:21:36;27.10;50.30
12049;DHT22;6085;49.452;8.502;2023-06-26T17:25:39;27.00;49.90
12049;DHT22;6085;49.452;8.502;2023-06-26T17:29:44;27.00;48.80
12049;DHT22;6085;49.452;8.502;2023-06-26T17:33:46;27.10;49.00
12049;DHT22;6085;49.452;8.502;2023-06-26T17:37:48;27.30;49.60
12049;DHT22;6085;49.452;8.502;2023-06-26T17:41:51;27.70;49.10
12049;DHT22;6085;49.452;8.502;2023-06-26T17:45:53;27.70;50.00
12049;DHT22;6085;49.452;8.502;2023-06-26T17:49:55;27.70;49.70
12049;DHT22;6085;49.452;8.502;2023-06-26T17:53:57;27.60;50.00
12049;DHT22;6085;49.452;8.502;2023-06-26T17:58:01;27.40;50.90
12049;DHT22;6085;49.452;8.502;2023-06-26T18:02:03;27.10;51.10
12049;DHT22;6085;49.452;8.502;2023-06-26T18:06:05;26.80;51.70
12049;DHT22;6085;49.452;8.502;2023-06-26T18:10:08;26.50;52.20
12049;DHT22;6085;49.452;8.502;2023-06-26T18:14:11;26.10;52.00
12049;DHT22;6085;49.452;8.502;2023-06-26T18:18:13;25.80;52.50
12049;DHT22;6085;49.452;8.502;2023-06-26T18:22:15;25.60;53.10
12049;DHT22;6085;49.452;8.502;2023-06-26T18:26:18;25.40;53.70
12049;DHT22;6085;49.452;8.502;2023-06-26T18:30:21;25.30;53.90
12049;DHT22;6085;49.452;8.502;2023-06-26T18:34:23;25.20;54.30
12049;DHT22;6085;49.452;8.502;2023-06-26T18:38:25;25.10;55.70
12049;DHT22;6085;49.452;8.502;2023-06-26T18:42:27;25.10;57.40
12049;DHT22;6085;49.452;8.502;2023-06-26T18:46:30;25.10;59.90
12049;DHT22;6085;49.452;8.502;2023-06-26T18:50:32;25.00;61.30
12049;DHT22;6085;49.452;8.502;2023-06-26T18:54:34;24.80;62.10
12049;DHT22;6085;49.452;8.502;2023-06-26T18:58:36;24.60;62.30
12049;DHT22;6085;49.452;8.502;2023-06-26T19:02:39;24.50;62.50
12049;DHT22;6085;49.452;8.502;2023-06-26T19:06:41;24.30;62.50
12049;DHT22;6085;49.452;8.502;2023-06-26T19:10:43;24.20;62.40
12049;DHT22;6085;49.452;8.502;2023-06-26T19:14:46;24.10;62.60
12049;DHT22;6085;49.452;8.502;2023-06-26T19:18:51;24.00;63.10
12049;DHT22;6085;49.452;8.502;2023-06-26T19:22:54;23.80;63.10
12049;DHT22;6085;49.452;8.502;2023-06-26T19:26:56;23.70;63.70
12049;DHT22;6085;49.452;8.502;2023-06-26T19:30:58;23.70;64.40
12049;DHT22;6085;49.452;8.502;2023-06-26T19:35:02;23.60;64.50
12049;DHT22;6085;49.452;8.502;2023-06-26T19:39:04;23.50;64.80
12049;DHT22;6085;49.452;8.502;2023-06-26T19:43:06;23.50;64.30
12049;DHT22;6085;49.452;8.502;2023-06-26T19:47:09;23.50;64.50
12049;DHT22;6085;49.452;8.502;2023-06-26T19:51:12;23.40;64.20
12049;DHT22;6085;49.452;8.502;2023-06-26T19:55:15;23.30;64.60
12049;DHT22;6085;49.452;8.502;2023-06-26T19:59:16;23.20;64.70
12049;DHT22;6085;49.452;8.502;2023-06-26T20:03:19;23.20;66.70
12049;DHT22;6085;49.452;8.502;2023-06-26T20:07:23;23.10;65.20
12049;DHT22;6085;49.452;8.502;2023-06-26T20:11:25;23.00;65.30
12049;DHT22;6085;49.452;8.502;2023-06-26T20:15:27;22.90;65.20
12049;DHT22;6085;49.452;8.502;2023-06-26T20:19:29;22.90;66.10
12049;DHT22;6085;49.452;8.502;2023-06-26T20:23:33;22.80;66.30
12049;DHT22;6085;49.452;8.502;2023-06-26T20:27:35;22.70;65.80
12049;DHT22;6085;49.452;8.502;2023-06-26T20:31:38;22.70;66.20
12049;DHT22;6085;49.452;8.502;2023-06-26T20:35:39;22.60;65.50
12049;DHT22;6085;49.452;8.502;2023-06-26T20:39:43;22.50;65.70
12049;DHT22;6085;49.452;8.502;2023-06-26T20:43:46;22.40;66.40
12049;DHT22;6085;49.452;8.502;2023-06-26T20:47:48;22.30;66.10
12049;DHT22;6085;49.452;8.502;2023-06-26T20:51:52;22.30;66.90
12049;DHT22;6085;49.452;8.502;2023-06-26T20:55:57;22.20;66.00
12049;DHT22;6085;49.452;8.502;2023-06-26T20:59:59;22.10;66.30
12049;DHT22;6085;49.452;8.502;2023-06-26T21:04:01;22.10;66.00
12049;DHT22;6085;49.452;8.502;2023-06-26T21:08:03;22.00;66.30
12049;DHT22;6085;49.452;8.502;2023-06-26T21:12:07;22.00;66.70
12049;DHT22;6085;49.452;8.502;2023-06-26T21:16:09;22.00;67.70
12049;DHT22;6085;49.452;8.502;2023-06-26T21:20:11;22.00;67.70
12049;DHT22;6085;49.452;8.502;2023-06-26T21:24:13;21.90;67.70
12049;DHT22;6085;49.452;8.502;2023-06-26T21:28:17;21.80;67.90
12049;DHT22;6085;49.452;8.502;2023-06-26T21:32:19;21.70;68.60
12049;DHT22;6085;49.452;8.502;2023-06-26T21:36:21;21.60;69.00
12049;DHT22;6085;49.452;8.502;2023-06-26T21:40:23;21.50;69.40
12049;DHT22;6085;49.452;8.502;2023-06-26T21:44:26;21.40;69.80
12049;DHT22;6085;49.452;8.502;2023-06-26T21:48:28;21.40;70.00
12049;DHT22;6085;49.452;8.502;2023-06-26T21:52:30;21.30;70.60
12049;DHT22;6085;49.452;8.502;2023-06-26T21:56:32;21.30;70.30
12049;DHT22;6085;49.452;8.502;2023-06-26T22:00:35;21.30;70.40
12049;DHT22;6085;49.452;8.502;2023-06-26T22:04:37;21.30;70.80
12049;DHT22;6085;49.452;8.502;2023-06-26T22:08:39;21.40;70.30
12049;DHT22;6085;49.452;8.502;2023-06-26T22:12:41;21.30;70.60
12049;DHT22;6085;49.452;8.502;2023-06-26T22:16:46;21.20;70.80
12049;DHT22;6085;49.452;8.502;2023-06-26T22:20:48;21.20;71.10
12049;DHT22;6085;49.452;8.502;2023-06-26T22:24:50;21.10;71.40
12049;DHT22;6085;49.452;8.502;2023-06-26T22:28:52;21.10;71.60
12049;DHT22;6085;49.452;8.502;2023-06-26T22:32:56;21.10;71.80
12049;DHT22;6085;49.452;8.502;2023-06-26T22:36:58;21.10;72.20
12049;DHT22;6085;49.452;8.502;2023-06-26T22:41:00;21.00;72.10
12049;DHT22;6085;49.452;8.502;2023-06-26T22:45:03;21.00;72.60
12049;DHT22;6085;49.452;8.502;2023-06-26T22:49:07;20.90;73.00
12049;DHT22;6085;49.452;8.502;2023-06-26T22:53:12;20.90;73.40
12049;DHT22;6085;49.452;8.502;2023-06-26T22:57:18;20.90;73.40
12049;DHT22;6085;49.452;8.502;2023-06-26T23:01:20;20.80;73.90
12049;DHT22;6085;49.452;8.502;2023-06-26T23:05:23;20.80;74.20
12049;DHT22;6085;49.452;8.502;2023-06-26T23:09:25;20.70;74.50
12049;DHT22;6085;49.452;8.502;2023-06-26T23:13:28;20.70;74.90
12049;DHT22;6085;49.452;8.502;2023-06-26T23:17:30;20.60;75.60
12049;DHT22;6085;49.452;8.502;2023-06-26T23:21:33;20.50;76.00
12049;DHT22;6085;49.452;8.502;2023-06-26T23:25:36;20.40;76.40
12049;DHT22;6085;49.452;8.502;2023-06-26T23:29:39;20.30;76.60
12049;DHT22;6085;49.452;8.502;2023-06-26T23:33:41;20.20;77.00
12049;DHT22;6085;49.452;8.502;2023-06-26T23:37:45;20.10;77.40
12049;DHT22;6085;49.452;8.502;2023-06-26T23:41:54;20.10;78.00
12049;DHT22;6085;49.452;8.502;2023-06-26T23:45:56;20.10;78.30
12049;DHT22;6085;49.452;8.502;2023-06-26T23:49:59;20.10;78.00
12049;DHT22;6085;49.452;8.502;2023-06-26T23:54:02;20.20;77.50
12049;DHT22;6085;49.452;8.502;2023-06-26T23:58:04;20.30;77.90
